createdAt,value
2018-09-21T00:00:42.984Z,59.80
2018-09-21T00:01:43.073Z,60.10
2018-09-21T00:02:43.033Z,59.80
2018-09-21T00:03:43.077Z,60.68
2018-09-21T00:04:43.052Z,60.58
2018-09-21T00:05:43.103Z,60.58
2018-09-21T00:06:43.046Z,60.19
2018-09-21T00:07:43.081Z,60.10
2018-09-21T00:08:43.283Z,60.28
2018-09-21T00:09:43.098Z,60.38
2018-09-21T00:10:43.148Z,60.10
2018-09-21T00:11:43.111Z,60.58
2018-09-21T00:12:43.180Z,60.28
2018-09-21T00:13:43.145Z,60.86
2018-09-21T00:14:43.184Z,60.68
2018-09-21T00:15:43.205Z,60.64
2018-09-21T00:16:43.175Z,60.55
2018-09-21T00:17:43.306Z,60.26
2018-09-21T00:18:43.183Z,60.45
2018-09-21T00:19:43.348Z,60.35
2018-09-21T00:20:43.223Z,60.38
2018-09-21T00:21:43.213Z,60.64
2018-09-21T00:22:43.251Z,60.83
2018-09-21T00:23:43.281Z,60.83
2018-09-21T00:24:43.294Z,60.83
2018-09-21T00:25:43.306Z,60.64
2018-09-21T00:26:43.321Z,60.74
2018-09-21T00:27:43.298Z,60.74
2018-09-21T00:28:43.305Z,60.19
2018-09-21T00:29:43.369Z,60.55
2018-09-21T00:30:43.342Z,60.83
2018-09-21T00:31:43.414Z,60.86
2018-09-21T00:32:43.362Z,60.45
2018-09-21T00:33:43.375Z,60.38
2018-09-21T00:34:43.413Z,60.83
2018-09-21T00:35:43.373Z,60.93
2018-09-21T00:36:43.454Z,61.03
2018-09-21T00:37:43.431Z,61.03
2018-09-21T00:38:43.432Z,60.28
2018-09-21T00:39:43.495Z,60.35
2018-09-21T00:40:43.449Z,60.16
2018-09-21T00:41:43.461Z,60.26
2018-09-21T00:42:43.494Z,60.26
2018-09-21T00:43:43.487Z,60.35
2018-09-21T00:44:43.490Z,60.93
2018-09-21T00:45:43.488Z,60.83
2018-09-21T00:46:43.543Z,60.45
2018-09-21T00:47:43.557Z,61.03
2018-09-21T00:48:43.545Z,60.83
2018-09-21T00:49:43.573Z,60.83
2018-09-21T00:50:43.644Z,60.93
2018-09-21T00:51:43.559Z,60.83
2018-09-21T00:52:43.603Z,60.55
2018-09-21T00:53:43.667Z,60.74
2018-09-21T00:54:43.619Z,60.93
2018-09-21T00:55:43.621Z,60.93
2018-09-21T00:56:43.672Z,60.64
2018-09-21T00:57:43.640Z,60.55
2018-09-21T00:58:43.661Z,60.83
2018-09-21T00:59:43.731Z,60.83
2018-09-21T01:00:43.685Z,60.83
2018-09-21T01:01:43.692Z,60.83
2018-09-21T01:02:43.697Z,60.83
2018-09-21T01:03:43.698Z,60.74
2018-09-21T01:04:43.731Z,60.74
2018-09-21T01:05:43.725Z,60.93
2018-09-21T01:06:43.779Z,60.64
2018-09-21T01:07:43.759Z,60.83
2018-09-21T01:08:43.751Z,61.03
2018-09-21T01:09:43.795Z,60.83
2018-09-21T01:10:43.809Z,60.83
2018-09-21T01:11:43.817Z,60.83
2018-09-21T01:12:43.822Z,60.83
2018-09-21T01:13:43.808Z,60.93
2018-09-21T01:14:43.827Z,60.83
2018-09-21T01:15:43.845Z,60.93
2018-09-21T01:16:43.895Z,60.64
2018-09-21T01:17:43.873Z,60.74
2018-09-21T01:18:43.924Z,61.51
2018-09-21T01:19:43.888Z,61.03
2018-09-21T01:20:43.903Z,61.13
2018-09-21T01:21:43.923Z,61.03
2018-09-21T01:22:43.949Z,61.13
2018-09-21T01:23:43.969Z,61.41
2018-09-21T01:24:43.974Z,61.19
2018-09-21T01:25:43.959Z,61.22
2018-09-21T01:26:44.031Z,61.32
2018-09-21T01:27:43.990Z,60.83
2018-09-21T01:28:44.000Z,60.42
2018-09-21T01:29:44.052Z,60.64
2018-09-21T01:30:44.054Z,61.29
2018-09-21T01:31:44.017Z,61.00
2018-09-21T01:32:44.044Z,60.90
2018-09-21T01:33:44.069Z,61.29
2018-09-21T01:34:44.105Z,61.10
2018-09-21T01:35:44.055Z,61.19
2018-09-21T01:36:44.121Z,61.10
2018-09-21T01:37:44.106Z,61.00
2018-09-21T01:38:44.115Z,61.19
2018-09-21T01:39:44.126Z,61.19
2018-09-21T01:40:44.148Z,61.19
2018-09-21T01:41:44.182Z,61.29
2018-09-21T01:42:44.159Z,60.90
2018-09-21T01:43:44.167Z,61.19
2018-09-21T01:44:44.191Z,61.19
2018-09-21T01:45:44.182Z,61.10
2018-09-21T01:46:44.203Z,61.19
2018-09-21T01:47:44.200Z,61.00
2018-09-21T01:48:44.291Z,60.80
2018-09-21T01:49:44.212Z,61.10
2018-09-21T01:50:44.244Z,61.00
2018-09-21T01:51:44.270Z,61.38
2018-09-21T01:52:44.313Z,61.38
2018-09-21T01:53:44.314Z,61.48
2018-09-21T01:54:44.303Z,61.48
2018-09-21T01:55:44.334Z,61.38
2018-09-21T01:56:44.326Z,61.38
2018-09-21T01:57:44.329Z,61.87
2018-09-21T01:58:44.357Z,61.96
2018-09-21T01:59:44.362Z,61.87
2018-09-21T02:00:44.432Z,61.77
2018-09-21T02:01:44.371Z,61.87
2018-09-21T02:02:44.400Z,62.06
2018-09-21T02:03:44.388Z,61.77
2018-09-21T02:04:44.426Z,61.68
2018-09-21T02:05:44.420Z,61.77
2018-09-21T02:06:44.436Z,61.96
2018-09-21T02:07:44.443Z,61.96
2018-09-21T02:08:44.544Z,61.77
2018-09-21T02:09:44.488Z,61.68
2018-09-21T02:10:44.506Z,61.58
2018-09-21T02:11:44.453Z,62.06
2018-09-21T02:12:44.618Z,61.96
2018-09-21T02:13:44.519Z,62.06
2018-09-21T02:14:44.690Z,61.96
2018-09-21T02:15:44.532Z,61.87
2018-09-21T02:16:44.529Z,61.68
2018-09-21T02:17:44.598Z,61.77
2018-09-21T02:18:44.548Z,61.96
2018-09-21T02:19:44.551Z,61.58
2018-09-21T02:20:44.629Z,61.77
2018-09-21T02:21:44.570Z,61.58
2018-09-21T02:22:44.642Z,61.87
2018-09-21T02:23:44.613Z,61.58
2018-09-21T02:24:44.662Z,62.06
2018-09-21T02:25:44.639Z,61.87
2018-09-21T02:26:44.646Z,61.87
2018-09-21T02:27:44.662Z,62.06
2018-09-21T02:28:44.642Z,61.68
2018-09-21T02:29:44.687Z,61.96
2018-09-21T02:30:44.689Z,62.15
2018-09-21T02:31:44.696Z,61.77
2018-09-21T02:32:44.711Z,62.06
2018-09-21T02:33:44.754Z,62.15
2018-09-21T02:34:44.710Z,61.87
2018-09-21T02:35:44.735Z,62.06
2018-09-21T02:36:44.789Z,61.77
2018-09-21T02:37:44.744Z,61.87
2018-09-21T02:38:44.754Z,61.77
2018-09-21T02:39:44.961Z,62.06
2018-09-21T02:40:44.813Z,62.15
2018-09-21T02:41:44.783Z,61.83
2018-09-21T02:42:44.833Z,61.65
2018-09-21T02:43:44.813Z,62.06
2018-09-21T02:44:44.876Z,62.15
2018-09-21T02:45:44.851Z,61.83
2018-09-21T02:46:44.857Z,62.35
2018-09-21T02:47:44.892Z,62.45
2018-09-21T02:48:44.910Z,62.06
2018-09-21T02:49:44.916Z,62.12
2018-09-21T02:50:44.952Z,61.77
2018-09-21T02:51:44.924Z,61.74
2018-09-21T02:52:44.926Z,62.45
2018-09-21T02:53:44.954Z,62.54
2018-09-21T02:54:44.952Z,62.15
2018-09-21T02:55:44.975Z,62.45
2018-09-21T02:56:44.981Z,62.12
2018-09-21T02:57:45.073Z,62.32
2018-09-21T02:58:45.049Z,62.32
2018-09-21T02:59:44.994Z,62.45
2018-09-21T03:00:45.127Z,62.80
2018-09-21T03:01:45.040Z,62.41
2018-09-21T03:02:45.060Z,62.80
2018-09-21T03:03:45.073Z,62.80
2018-09-21T03:04:45.103Z,62.63
2018-09-21T03:05:45.078Z,62.41
2018-09-21T03:06:45.087Z,62.60
2018-09-21T03:07:45.110Z,62.80
2018-09-21T03:08:45.124Z,62.73
2018-09-21T03:09:45.108Z,62.35
2018-09-21T03:10:45.133Z,62.63
2018-09-21T03:11:45.262Z,62.80
2018-09-21T03:12:45.260Z,62.70
2018-09-21T03:13:45.163Z,62.73
2018-09-21T03:14:45.186Z,62.41
2018-09-21T03:15:45.187Z,62.60
2018-09-21T03:16:45.294Z,62.73
2018-09-21T03:17:45.223Z,62.41
2018-09-21T03:18:45.232Z,62.90
2018-09-21T03:19:45.216Z,63.09
2018-09-21T03:20:45.237Z,62.99
2018-09-21T03:21:45.277Z,62.90
2018-09-21T03:22:45.273Z,63.09
2018-09-21T03:23:46.165Z,62.70
2018-09-21T03:24:45.337Z,62.90
2018-09-21T03:25:45.319Z,62.60
2018-09-21T03:26:45.353Z,63.38
2018-09-21T03:27:45.294Z,63.57
2018-09-21T03:28:45.369Z,63.47
2018-09-21T03:29:45.381Z,62.51
2018-09-21T03:30:45.403Z,63.47
2018-09-21T03:31:45.407Z,62.90
2018-09-21T03:32:45.359Z,63.28
2018-09-21T03:33:45.375Z,62.90
2018-09-21T03:34:45.435Z,62.90
2018-09-21T03:35:45.424Z,63.38
2018-09-21T03:36:45.422Z,63.09
2018-09-21T03:37:45.475Z,63.28
2018-09-21T03:38:45.513Z,63.57
2018-09-21T03:39:45.461Z,63.47
2018-09-21T03:40:45.500Z,63.67
2018-09-21T03:41:45.502Z,63.76
2018-09-21T03:42:45.481Z,63.38
2018-09-21T03:43:45.469Z,63.47
2018-09-21T03:44:45.491Z,63.95
2018-09-21T03:45:45.501Z,63.18
2018-09-21T03:46:45.541Z,63.47
2018-09-21T03:47:45.523Z,63.76
2018-09-21T03:48:45.570Z,63.85
2018-09-21T03:49:45.553Z,63.38
2018-09-21T03:50:45.566Z,63.38
2018-09-21T03:51:45.657Z,64.05
2018-09-21T03:52:45.614Z,63.67
2018-09-21T03:53:45.610Z,63.38
2018-09-21T03:54:45.647Z,63.09
2018-09-21T03:55:45.618Z,63.85
2018-09-21T03:56:45.667Z,63.28
2018-09-21T03:57:45.681Z,63.47
2018-09-21T03:58:45.679Z,64.15
2018-09-21T03:59:45.706Z,63.76
2018-09-21T04:00:45.709Z,63.85
2018-09-21T04:01:45.710Z,64.05
2018-09-21T04:02:45.700Z,63.76
2018-09-21T04:03:45.698Z,63.85
2018-09-21T04:04:45.732Z,63.85
2018-09-21T04:05:45.762Z,64.34
2018-09-21T04:06:45.779Z,64.15
2018-09-21T04:07:45.780Z,64.25
2018-09-21T04:08:45.757Z,64.25
2018-09-21T04:09:45.768Z,64.34
2018-09-21T04:10:45.825Z,64.05
2018-09-21T04:11:45.807Z,64.15
2018-09-21T04:12:45.844Z,64.25
2018-09-21T04:13:45.840Z,64.05
2018-09-21T04:14:45.845Z,64.15
2018-09-21T04:15:45.899Z,64.05
2018-09-21T04:16:45.843Z,64.53
2018-09-21T04:17:45.909Z,64.82
2018-09-21T04:18:45.879Z,64.63
2018-09-21T04:19:45.889Z,64.34
2018-09-21T04:20:45.893Z,64.43
2018-09-21T04:21:45.948Z,64.92
2018-09-21T04:22:45.920Z,64.34
2018-09-21T04:23:45.930Z,64.43
2018-09-21T04:24:45.925Z,64.53
2018-09-21T04:25:45.988Z,64.43
2018-09-21T04:26:45.993Z,64.53
2018-09-21T04:27:45.975Z,64.43
2018-09-21T04:28:46.011Z,65.20
2018-09-21T04:29:46.056Z,64.63
2018-09-21T04:30:46.005Z,65.11
2018-09-21T04:31:46.019Z,65.11
2018-09-21T04:32:46.069Z,65.30
2018-09-21T04:33:46.692Z,65.01
2018-09-21T04:34:46.078Z,64.63
2018-09-21T04:35:46.068Z,64.82
2018-09-21T04:36:46.081Z,64.63
2018-09-21T04:37:46.108Z,64.73
2018-09-21T04:38:46.115Z,65.30
2018-09-21T04:39:46.140Z,65.40
2018-09-21T04:40:46.112Z,65.11
2018-09-21T04:41:46.215Z,65.30
2018-09-21T04:42:46.146Z,64.92
2018-09-21T04:43:46.150Z,65.30
2018-09-21T04:44:46.192Z,65.30
2018-09-21T04:45:46.248Z,65.40
2018-09-21T04:46:46.206Z,65.20
2018-09-21T04:47:46.199Z,65.40
2018-09-21T04:48:46.217Z,65.11
2018-09-21T04:49:46.232Z,65.20
2018-09-21T04:50:46.220Z,65.30
2018-09-21T04:51:46.251Z,65.30
2018-09-21T04:52:46.293Z,65.20
2018-09-21T04:53:46.429Z,65.20
2018-09-21T04:54:46.293Z,65.11
2018-09-21T04:55:46.289Z,65.11
2018-09-21T04:56:46.287Z,65.40
2018-09-21T04:57:46.326Z,65.59
2018-09-21T04:58:46.317Z,65.50
2018-09-21T04:59:46.334Z,65.88
2018-09-21T05:00:46.342Z,65.40
2018-09-21T05:01:46.338Z,65.88
2018-09-21T05:02:46.348Z,65.88
2018-09-21T05:03:46.355Z,66.36
2018-09-21T05:04:46.413Z,66.17
2018-09-21T05:05:46.407Z,65.88
2018-09-21T05:06:46.394Z,65.98
2018-09-21T05:07:46.428Z,65.59
2018-09-21T05:08:46.414Z,65.69
2018-09-21T05:09:46.442Z,65.78
2018-09-21T05:10:46.439Z,66.27
2018-09-21T05:11:46.469Z,66.27
2018-09-21T05:12:46.512Z,66.17
2018-09-21T05:13:46.676Z,65.98
2018-09-21T05:14:46.487Z,66.27
2018-09-21T05:15:46.540Z,66.17
2018-09-21T05:16:46.541Z,66.36
2018-09-21T05:17:46.514Z,66.27
2018-09-21T05:18:46.557Z,66.17
2018-09-21T05:19:46.603Z,65.98
2018-09-21T05:20:46.802Z,66.27
2018-09-21T05:21:46.608Z,66.55
2018-09-21T05:22:46.577Z,66.85
2018-09-21T05:23:46.605Z,66.65
2018-09-21T05:24:46.601Z,66.36
2018-09-21T05:25:46.625Z,66.39
2018-09-21T05:26:46.658Z,66.78
2018-09-21T05:27:46.631Z,66.20
2018-09-21T05:28:46.652Z,66.30
2018-09-21T05:29:46.702Z,66.20
2018-09-21T05:30:46.669Z,66.59
2018-09-21T05:31:46.704Z,65.81
2018-09-21T05:32:46.694Z,66.88
2018-09-21T05:33:46.793Z,66.78
2018-09-21T05:34:46.900Z,66.59
2018-09-21T05:35:46.735Z,65.81
2018-09-21T05:36:46.744Z,66.59
2018-09-21T05:37:46.750Z,66.11
2018-09-21T05:38:46.805Z,66.30
2018-09-21T05:39:46.769Z,66.04
2018-09-21T05:40:46.766Z,65.91
2018-09-21T05:41:46.815Z,65.95
2018-09-21T05:42:46.813Z,66.33
2018-09-21T05:43:46.846Z,65.56
2018-09-21T05:44:46.876Z,65.56
2018-09-21T05:45:46.867Z,65.75
2018-09-21T05:46:46.844Z,65.17
2018-09-21T05:47:46.875Z,65.08
2018-09-21T05:48:46.889Z,65.37
2018-09-21T05:49:46.974Z,64.98
2018-09-21T05:50:46.941Z,65.66
2018-09-21T05:51:46.951Z,65.66
2018-09-21T05:52:46.955Z,65.37
2018-09-21T05:53:46.963Z,65.27
2018-09-21T05:54:46.960Z,64.79
2018-09-21T05:55:46.959Z,64.98
2018-09-21T05:56:46.989Z,65.27
2018-09-21T05:57:46.987Z,64.59
2018-09-21T05:58:47.001Z,64.69
2018-09-21T05:59:47.054Z,64.43
2018-09-21T06:00:47.048Z,64.31
2018-09-21T06:01:47.066Z,64.63
2018-09-21T06:02:47.074Z,64.63
2018-09-21T06:03:47.086Z,64.05
2018-09-21T06:04:47.071Z,64.43
2018-09-21T06:05:47.094Z,64.15
2018-09-21T06:06:47.100Z,63.95
2018-09-21T06:07:47.168Z,64.15
2018-09-21T06:08:47.113Z,64.05
2018-09-21T06:09:47.232Z,63.47
2018-09-21T06:10:47.124Z,63.18
2018-09-21T06:11:47.181Z,63.67
2018-09-21T06:12:47.184Z,63.79
2018-09-21T06:13:47.250Z,63.09
2018-09-21T06:14:47.193Z,63.70
2018-09-21T06:15:47.212Z,63.70
2018-09-21T06:16:47.353Z,63.70
2018-09-21T06:17:47.213Z,63.70
2018-09-21T06:18:47.243Z,63.70
2018-09-21T06:19:47.249Z,63.02
2018-09-21T06:20:47.367Z,63.31
2018-09-21T06:21:47.299Z,63.40
2018-09-21T06:22:47.333Z,63.31
2018-09-21T06:23:47.434Z,63.31
2018-09-21T06:24:47.320Z,62.82
2018-09-21T06:25:47.367Z,62.82
2018-09-21T06:26:47.335Z,62.92
2018-09-21T06:27:47.376Z,62.82
2018-09-21T06:28:47.383Z,62.73
2018-09-21T06:29:47.393Z,62.63
2018-09-21T06:30:47.418Z,62.82
2018-09-21T06:31:47.385Z,62.15
2018-09-21T06:32:47.412Z,62.63
2018-09-21T06:33:47.468Z,62.18
2018-09-21T06:34:47.497Z,61.89
2018-09-21T06:35:47.459Z,61.60
2018-09-21T06:36:47.477Z,61.31
2018-09-21T06:37:47.865Z,61.41
2018-09-21T06:38:47.710Z,61.60
2018-09-21T06:39:47.494Z,62.18
2018-09-21T06:40:47.535Z,62.08
2018-09-21T06:41:47.525Z,61.99
2018-09-21T06:42:47.532Z,61.31
2018-09-21T06:43:47.631Z,61.22
2018-09-21T06:44:47.549Z,61.02
2018-09-21T06:45:47.556Z,60.64
2018-09-21T06:46:47.591Z,61.51
2018-09-21T06:47:47.628Z,61.05
2018-09-21T06:48:47.649Z,61.15
2018-09-21T06:49:47.618Z,60.67
2018-09-21T06:50:47.642Z,60.38
2018-09-21T06:51:47.640Z,60.38
2018-09-21T06:52:47.839Z,60.76
2018-09-21T06:53:47.712Z,60.96
2018-09-21T06:54:47.697Z,60.38
2018-09-21T06:55:47.718Z,59.70
2018-09-21T06:56:47.724Z,60.09
2018-09-21T06:57:47.747Z,60.18
2018-09-21T06:58:49.986Z,60.18
2018-09-21T06:59:47.752Z,59.34
2018-09-21T07:00:47.762Z,58.95
2018-09-21T07:01:47.850Z,58.76
2018-09-21T07:02:47.811Z,58.86
2018-09-21T07:03:47.810Z,58.76
2018-09-21T07:04:47.826Z,59.15
2018-09-21T07:05:47.843Z,58.86
2018-09-21T07:06:47.849Z,58.95
2018-09-21T07:07:47.871Z,58.76
2018-09-21T07:08:47.894Z,58.76
2018-09-21T07:09:47.957Z,58.95
2018-09-21T07:10:47.873Z,58.57
2018-09-21T07:11:47.897Z,59.15
2018-09-21T07:12:48.036Z,58.70
2018-09-21T07:13:47.938Z,58.95
2018-09-21T07:14:47.958Z,58.09
2018-09-21T07:15:47.986Z,58.98
2018-09-21T07:16:47.970Z,58.80
2018-09-21T07:17:48.219Z,58.31
2018-09-21T07:18:47.985Z,58.70
2018-09-21T07:19:47.996Z,58.21
2018-09-21T07:20:48.035Z,57.63
2018-09-21T07:21:48.013Z,57.73
2018-09-21T07:22:48.049Z,57.54
2018-09-21T07:23:48.249Z,57.34
2018-09-21T07:24:48.066Z,57.24
2018-09-21T07:25:48.066Z,56.95
2018-09-21T07:26:48.200Z,57.34
2018-09-21T07:27:48.235Z,58.02
2018-09-21T07:28:48.298Z,58.50
2018-09-21T07:29:48.157Z,57.44
2018-09-21T07:30:48.353Z,56.95
2018-09-21T07:31:48.158Z,57.56
2018-09-21T07:32:48.181Z,57.54
2018-09-21T07:33:48.293Z,57.24
2018-09-21T07:34:48.186Z,56.79
2018-09-21T07:35:48.385Z,57.18
2018-09-21T07:36:48.497Z,56.67
2018-09-21T07:37:48.409Z,57.46
2018-09-21T07:38:48.315Z,57.46
2018-09-21T07:39:48.325Z,57.28
2018-09-21T07:40:48.364Z,57.08
2018-09-21T07:41:48.282Z,57.05
2018-09-21T07:42:48.335Z,57.18
2018-09-21T07:43:48.448Z,57.37
2018-09-21T07:44:48.360Z,57.44
2018-09-21T07:45:48.367Z,56.98
2018-09-21T07:46:48.359Z,57.08
2018-09-21T07:47:48.362Z,56.95
2018-09-21T07:48:48.389Z,57.18
2018-09-21T07:49:48.388Z,56.88
2018-09-21T07:50:48.428Z,56.95
2018-09-21T07:51:48.440Z,57.44
2018-09-21T07:52:48.479Z,56.95
2018-09-21T07:53:48.449Z,57.15
2018-09-21T07:54:48.487Z,56.86
2018-09-21T07:55:48.553Z,57.15
2018-09-21T07:56:48.504Z,57.05
2018-09-21T07:57:48.487Z,56.95
2018-09-21T07:58:48.519Z,57.44
2018-09-21T07:59:48.521Z,57.63
2018-09-21T08:00:48.555Z,57.92
2018-09-21T08:01:48.574Z,57.54
2018-09-21T08:02:48.564Z,57.76
2018-09-21T08:03:48.572Z,57.92
2018-09-21T08:04:48.576Z,58.21
2018-09-21T08:05:48.606Z,58.02
2018-09-21T08:06:48.607Z,57.92
2018-09-21T08:07:48.674Z,58.12
2018-09-21T08:08:48.675Z,58.31
2018-09-21T08:09:48.636Z,58.02
2018-09-21T08:10:48.667Z,57.54
2018-09-21T08:11:48.680Z,57.54
2018-09-21T08:12:48.757Z,56.95
2018-09-21T08:13:48.728Z,57.24
2018-09-21T08:14:48.709Z,58.31
2018-09-21T08:15:48.716Z,58.34
2018-09-21T08:16:48.754Z,57.05
2018-09-21T08:17:48.784Z,57.15
2018-09-21T08:18:48.895Z,57.44
2018-09-21T08:19:48.782Z,56.95
2018-09-21T08:20:48.784Z,56.86
2018-09-21T08:21:48.857Z,56.95
2018-09-21T08:22:48.817Z,56.67
2018-09-21T08:23:48.817Z,56.76
2018-09-21T08:24:48.921Z,57.05
2018-09-21T08:25:48.836Z,57.56
2018-09-21T08:26:48.853Z,57.34
2018-09-21T08:27:48.934Z,57.54
2018-09-21T08:28:48.897Z,57.86
2018-09-21T08:29:48.953Z,57.66
2018-09-21T08:30:48.923Z,57.56
2018-09-21T08:31:48.923Z,57.08
2018-09-21T08:32:49.008Z,57.05
2018-09-21T08:33:49.335Z,57.18
2018-09-21T08:34:49.149Z,56.98
2018-09-21T08:35:49.014Z,57.46
2018-09-21T08:36:48.993Z,56.98
2018-09-21T08:37:49.006Z,57.56
2018-09-21T08:38:49.032Z,56.88
2018-09-21T08:39:49.037Z,56.79
2018-09-21T08:40:49.186Z,57.28
2018-09-21T08:41:49.115Z,56.98
2018-09-21T08:42:49.101Z,56.30
2018-09-21T08:43:49.109Z,56.21
2018-09-21T08:44:49.178Z,56.98
2018-09-21T08:45:49.126Z,55.92
2018-09-21T08:46:49.168Z,56.30
2018-09-21T08:47:49.141Z,56.02
2018-09-21T08:48:49.181Z,56.40
2018-09-21T08:49:49.147Z,56.30
2018-09-21T08:50:49.193Z,55.82
2018-09-21T08:51:49.250Z,55.92
2018-09-21T08:52:49.225Z,55.92
2018-09-21T08:53:49.234Z,56.21
2018-09-21T08:54:49.244Z,56.02
2018-09-21T08:55:49.288Z,55.43
2018-09-21T08:56:49.246Z,55.53
2018-09-21T08:57:49.283Z,55.53
2018-09-21T08:58:49.342Z,55.05
2018-09-21T08:59:49.292Z,55.66
2018-09-21T09:00:49.315Z,55.24
2018-09-21T09:01:49.312Z,55.17
2018-09-21T09:02:50.122Z,55.24
2018-09-21T09:03:49.379Z,55.24
2018-09-21T09:04:49.406Z,55.24
2018-09-21T09:05:49.402Z,55.07
2018-09-21T09:06:49.387Z,55.27
2018-09-21T09:07:49.527Z,55.27
2018-09-21T09:08:49.403Z,55.17
2018-09-21T09:09:49.652Z,54.98
2018-09-21T09:10:49.483Z,55.17
2018-09-21T09:11:49.773Z,54.59
2018-09-21T09:12:49.467Z,54.59
2018-09-21T09:13:49.522Z,55.46
2018-09-21T09:14:49.906Z,54.98
2018-09-21T09:15:49.519Z,55.56
2018-09-21T09:16:49.529Z,55.07
2018-09-21T09:17:49.720Z,55.07
2018-09-21T09:18:49.612Z,55.17
2018-09-21T09:19:49.556Z,55.07
2018-09-21T09:20:49.774Z,55.17
2018-09-21T09:21:49.611Z,54.88
2018-09-21T09:22:49.649Z,54.69
2018-09-21T09:23:49.648Z,54.39
2018-09-21T09:24:49.779Z,54.49
2018-09-21T09:25:49.863Z,53.63
2018-09-21T09:26:49.833Z,53.63
2018-09-21T09:27:49.770Z,54.39
2018-09-21T09:28:49.700Z,54.11
2018-09-21T09:29:49.763Z,53.63
2018-09-21T09:30:49.714Z,53.63
2018-09-21T09:31:49.726Z,53.63
2018-09-21T09:32:49.775Z,53.63
2018-09-21T09:33:49.861Z,53.55
2018-09-21T09:34:50.227Z,54.21
2018-09-21T09:35:55.858Z,53.91
2018-09-21T09:36:49.992Z,53.33
2018-09-21T09:37:49.848Z,53.63
2018-09-21T09:38:49.815Z,54.13
2018-09-21T09:39:49.882Z,53.65
2018-09-21T09:40:49.844Z,53.07
2018-09-21T09:41:49.951Z,53.36
2018-09-21T09:42:49.927Z,53.45
2018-09-21T09:43:49.875Z,53.45
2018-09-21T09:44:49.903Z,53.26
2018-09-21T09:45:49.907Z,53.26
2018-09-21T09:46:50.256Z,53.17
2018-09-21T09:47:50.045Z,53.07
2018-09-21T09:48:49.950Z,53.17
2018-09-21T09:49:50.031Z,52.87
2018-09-21T09:50:50.005Z,53.17
2018-09-21T09:51:49.976Z,52.97
2018-09-21T09:52:50.001Z,52.87
2018-09-21T09:53:50.051Z,52.78
2018-09-21T09:54:50.050Z,52.78
2018-09-21T09:55:50.152Z,53.17
2018-09-21T09:56:50.051Z,52.39
2018-09-21T09:57:50.060Z,51.90
2018-09-21T09:58:50.107Z,53.07
2018-09-21T09:59:50.182Z,52.22
2018-09-21T10:00:50.158Z,51.93
2018-09-21T10:01:50.137Z,52.12
2018-09-21T10:02:50.237Z,53.58
2018-09-21T10:03:50.246Z,52.80
2018-09-21T10:04:50.194Z,51.84
2018-09-21T10:05:50.722Z,51.84
2018-09-21T10:06:50.247Z,51.93
2018-09-21T10:07:50.223Z,51.64
2018-09-21T10:08:50.222Z,51.84
2018-09-21T10:09:50.261Z,51.76
2018-09-21T10:10:50.238Z,50.77
2018-09-21T10:11:50.266Z,51.35
2018-09-21T10:12:50.294Z,50.89
2018-09-21T10:13:50.451Z,50.48
2018-09-21T10:14:50.361Z,50.79
2018-09-21T10:15:50.371Z,50.41
2018-09-21T10:16:50.367Z,50.21
2018-09-21T10:17:50.384Z,49.92
2018-09-21T10:18:50.340Z,50.12
2018-09-21T10:19:50.404Z,50.21
2018-09-21T10:20:50.479Z,50.31
2018-09-21T10:21:50.507Z,50.60
2018-09-21T10:22:50.427Z,49.92
2018-09-21T10:23:50.430Z,49.54
2018-09-21T10:24:50.473Z,49.66
2018-09-21T10:25:50.497Z,49.85
2018-09-21T10:26:50.564Z,49.66
2018-09-21T10:27:50.791Z,50.24
2018-09-21T10:28:57.531Z,50.24
2018-09-21T10:29:50.688Z,49.56
2018-09-21T10:30:50.585Z,49.37
2018-09-21T10:31:50.586Z,49.27
2018-09-21T10:32:50.549Z,49.07
2018-09-21T10:33:50.714Z,49.07
2018-09-21T10:34:50.603Z,49.17
2018-09-21T10:35:50.610Z,48.97
2018-09-21T10:36:50.630Z,48.88
2018-09-21T10:37:50.623Z,48.90
2018-09-21T10:38:50.767Z,48.90
2018-09-21T10:39:50.680Z,48.03
2018-09-21T10:40:50.760Z,48.80
2018-09-21T10:41:50.705Z,47.93
2018-09-21T10:42:50.842Z,46.96
2018-09-21T10:43:50.753Z,47.35
2018-09-21T10:44:50.757Z,47.74
2018-09-21T10:45:50.755Z,46.96
2018-09-21T10:46:50.804Z,46.48
2018-09-21T10:47:50.827Z,45.92
2018-09-21T10:48:50.782Z,45.82
2018-09-21T10:49:50.879Z,45.53
2018-09-21T10:50:50.874Z,46.79
2018-09-21T10:51:50.978Z,45.72
2018-09-21T10:52:50.914Z,46.11
2018-09-21T10:53:50.932Z,45.82
2018-09-21T10:54:50.894Z,45.72
2018-09-21T10:55:50.951Z,45.82
2018-09-21T10:56:50.923Z,46.01
2018-09-21T10:57:50.932Z,45.72
2018-09-21T10:58:50.930Z,46.11
2018-09-21T10:59:51.011Z,45.34
2018-09-21T11:00:50.981Z,44.85
2018-09-21T11:01:50.994Z,45.65
2018-09-21T11:02:51.045Z,45.34
2018-09-21T11:03:51.110Z,45.14
2018-09-21T11:04:51.103Z,45.34
2018-09-21T11:05:51.063Z,45.53
2018-09-21T11:06:51.102Z,45.62
2018-09-21T11:07:51.134Z,43.98
2018-09-21T11:08:51.100Z,44.29
2018-09-21T11:09:51.095Z,44.68
2018-09-21T11:10:51.193Z,45.55
2018-09-21T11:11:51.152Z,44.58
2018-09-21T11:12:51.247Z,44.29
2018-09-21T11:13:51.167Z,44.48
2018-09-21T11:14:51.195Z,44.58
2018-09-21T11:15:51.201Z,44.48
2018-09-21T11:16:51.219Z,44.09
2018-09-21T11:17:51.280Z,44.19
2018-09-21T11:18:51.287Z,44.58
2018-09-21T11:19:51.261Z,44.29
2018-09-21T11:20:51.303Z,44.48
2018-09-21T11:21:51.316Z,44.38
2018-09-21T11:22:51.385Z,44.58
2018-09-21T11:23:51.319Z,44.68
2018-09-21T11:24:51.347Z,45.07
2018-09-21T11:25:51.381Z,45.26
2018-09-21T11:26:51.387Z,44.87
2018-09-21T11:27:51.383Z,44.89
2018-09-21T11:28:51.413Z,45.28
2018-09-21T11:29:51.412Z,45.38
2018-09-21T11:30:51.453Z,45.48
2018-09-21T11:31:51.516Z,45.09
2018-09-21T11:32:51.466Z,44.79
2018-09-21T11:33:51.466Z,45.38
2018-09-21T11:34:51.513Z,45.57
2018-09-21T11:35:51.496Z,45.09
2018-09-21T11:36:51.570Z,45.38
2018-09-21T11:37:51.528Z,45.18
2018-09-21T11:38:51.718Z,45.28
2018-09-21T11:39:51.740Z,45.48
2018-09-21T11:40:51.605Z,45.38
2018-09-21T11:41:51.632Z,45.18
2018-09-21T11:42:51.772Z,45.38
2018-09-21T11:43:51.641Z,45.09
2018-09-21T11:44:51.633Z,44.31
2018-09-21T11:45:51.689Z,44.14
2018-09-21T11:46:51.737Z,44.72
2018-09-21T11:47:51.767Z,44.53
2018-09-21T11:48:51.715Z,44.33
2018-09-21T11:49:51.771Z,44.14
2018-09-21T11:50:51.894Z,44.24
2018-09-21T11:51:51.913Z,44.33
2018-09-21T11:52:51.791Z,43.16
2018-09-21T11:53:51.846Z,43.77
2018-09-21T11:54:51.792Z,43.67
2018-09-21T11:55:51.809Z,43.67
2018-09-21T11:56:51.998Z,43.87
2018-09-21T11:57:51.886Z,43.96
2018-09-21T11:58:51.878Z,43.48
2018-09-21T11:59:51.864Z,42.99
2018-09-21T12:00:51.937Z,43.48
2018-09-21T12:01:51.989Z,43.96
2018-09-21T12:02:51.965Z,42.99
2018-09-21T12:03:52.033Z,42.99
2018-09-21T12:04:52.136Z,43.09
2018-09-21T12:05:52.029Z,42.31
2018-09-21T12:06:52.026Z,42.80
2018-09-21T12:07:51.987Z,42.31
2018-09-21T12:08:52.073Z,42.31
2018-09-21T12:09:52.048Z,41.63
2018-09-21T12:10:52.163Z,42.02
2018-09-21T12:11:52.061Z,42.31
2018-09-21T12:12:52.090Z,41.05
2018-09-21T12:13:52.122Z,42.14
2018-09-21T12:14:52.123Z,42.11
2018-09-21T12:15:54.210Z,42.60
2018-09-21T12:16:52.196Z,41.53
2018-09-21T12:17:52.220Z,41.73
2018-09-21T12:18:52.178Z,42.70
2018-09-21T12:19:52.263Z,42.60
2018-09-21T12:20:52.237Z,42.60
2018-09-21T12:21:52.239Z,41.93
2018-09-21T12:22:52.330Z,40.93
2018-09-21T12:23:52.311Z,42.41
2018-09-21T12:24:52.283Z,41.90
2018-09-21T12:25:52.296Z,41.93
2018-09-21T12:26:52.362Z,41.42
2018-09-21T12:27:52.317Z,42.31
2018-09-21T12:28:52.430Z,42.11
2018-09-21T12:29:52.347Z,42.90
2018-09-21T12:30:52.389Z,42.31
2018-09-21T12:31:52.409Z,42.90
2018-09-21T12:32:52.394Z,42.87
2018-09-21T12:33:52.405Z,42.70
2018-09-21T12:34:52.450Z,42.31
2018-09-21T12:35:52.460Z,42.31
2018-09-21T12:36:52.487Z,42.31
2018-09-21T12:37:52.513Z,42.90
2018-09-21T12:38:52.498Z,42.90
2018-09-21T12:39:52.513Z,42.80
2018-09-21T12:40:52.634Z,43.29
2018-09-21T12:41:52.572Z,43.19
2018-09-21T12:42:52.597Z,42.90
2018-09-21T12:43:52.692Z,42.31
2018-09-21T12:44:52.586Z,42.90
2018-09-21T12:45:52.699Z,42.50
2018-09-21T12:46:52.688Z,41.53
2018-09-21T12:47:52.650Z,42.11
2018-09-21T12:48:53.291Z,42.41
2018-09-21T12:49:52.841Z,41.34
2018-09-21T12:50:52.739Z,42.72
2018-09-21T12:51:52.763Z,41.73
2018-09-21T12:52:52.776Z,41.73